This is the latest recevied weather packets stored in our database for station/object EA3GKP-7. If no packets are shown the sender has not sent any weather packets the latest 10 day(s).
| Time | Temp. | Humidity | Pressure | Rain* | Wind** | Luminosity | Snow |
|---|---|---|---|---|---|---|---|
| 1787691920 | 27.78° C | 84% | 1016.9 hPa | - | - | - | - |
| 1787691620 | 27.78° C | 83% | 1016.9 hPa | - | - | - | - |
| 1787691320 | 27.78° C | 82% | 1016.9 hPa | - | - | - | - |
| 1787691020 | 27.78° C | 82% | 1017 hPa | - | - | - | - |
| 1787690720 | 27.78° C | 81% | 1016.9 hPa | - | - | - | - |
| 1787690420 | 27.78° C | 82% | 1016.8 hPa | - | - | - | - |
| 1787690120 | 27.78° C | 80% | 1016.8 hPa | - | - | - | - |
| 1787689820 | 28.33° C | 77% | 1016.8 hPa | - | - | - | - |
| 1787689520 | 28.89° C | 74% | 1016.7 hPa | - | - | - | - |
| 1787689220 | 28.89° C | 72% | 1016.5 hPa | - | - | - | - |
| 1787688920 | 28.89° C | 73% | 1016.5 hPa | - | - | - | - |
| 1787688620 | 28.33° C | 74% | 1016.4 hPa | - | - | - | - |
| 1787688320 | 28.89° C | 70% | 1016.3 hPa | - | - | - | - |
| 1787688020 | 29.44° C | 66% | 1016.1 hPa | - | - | - | - |
| 1787687720 | 29.44° C | 67% | 1016 hPa | - | - | - | - |
| 1787687420 | 28.89° C | 68% | 1016.1 hPa | - | - | - | - |
| 1787687120 | 29.44° C | 67% | 1016.1 hPa | - | - | - | - |
| 1787686820 | 29.44° C | 69% | 1015.9 hPa | - | - | - | - |
| 1787686520 | 28.89° C | 78% | 1015.8 hPa | - | - | - | - |
| 1787686220 | 29.44° C | 75% | 1015.7 hPa | - | - | - | - |
| 1787685920 | 30° C | 74% | 1015.7 hPa | - | - | - | - |
| 1787685620 | 29.44° C | 76% | 1015.6 hPa | - | - | - | - |
| 1787685320 | 30° C | 79% | 1015.6 hPa | - | - | - | - |
| 1787685020 | 29.44° C | 83% | 1015.5 hPa | - | - | - | - |
| 1787684720 | 30° C | 85% | 1015.4 hPa | - | - | - | - |
* Rain since midnight (hover to see other rain measurements)
** Current wind speed in m/s (hover to see current wind gust speed)